createdAt,value
2022-08-02T00:01:58.947Z,100403.56
2022-08-02T00:04:27.804Z,100404.45
2022-08-02T00:06:56.832Z,100405.98
2022-08-02T00:09:25.623Z,100404.78
2022-08-02T00:11:54.492Z,100405.23
2022-08-02T00:14:23.448Z,100404.84
2022-08-02T00:16:52.209Z,100403.87
2022-08-02T00:19:21.002Z,100406.24
2022-08-02T00:21:49.788Z,100408.03
2022-08-02T00:24:28.945Z,100408.75
2022-08-02T00:26:58.738Z,100403.40
2022-08-02T00:29:27.565Z,100406.56
2022-08-02T00:31:56.805Z,100410.21
2022-08-02T00:34:28.347Z,100410.20
2022-08-02T00:36:59.952Z,100409.59
2022-08-02T00:39:35.325Z,100407.77
2022-08-02T00:42:05.900Z,100407.77
2022-08-02T00:44:34.783Z,100408.12
2022-08-02T00:47:03.634Z,100409.77
2022-08-02T00:49:32.985Z,100411.44
2022-08-02T00:52:02.124Z,100409.38
2022-08-02T00:54:30.957Z,100411.45
2022-08-02T00:56:59.815Z,100407.67
2022-08-02T00:59:28.671Z,100410.77
2022-08-02T01:01:58.441Z,100413.65
2022-08-02T01:04:31.392Z,100407.11
2022-08-02T01:07:03.425Z,100405.19
2022-08-02T01:09:43.119Z,100405.02
2022-08-02T01:12:13.664Z,100406.68
2022-08-02T01:14:43.911Z,100409.58
2022-08-02T01:17:18.009Z,100411.30
2022-08-02T01:19:54.072Z,100414.05
2022-08-02T01:23:02.713Z,100411.80
2022-08-02T01:26:00.876Z,100407.83
2022-08-02T01:28:39.007Z,100405.77
2022-08-02T01:31:16.428Z,100405.16
2022-08-02T01:33:51.811Z,100401.41
2022-08-02T01:36:20.251Z,100400.42
2022-08-02T01:38:52.876Z,100398.85
2022-08-02T01:41:24.406Z,100394.55
2022-08-02T01:43:56.811Z,100400.70
2022-08-02T01:46:27.408Z,100401.79
2022-08-02T01:48:58.485Z,100404.27
2022-08-02T01:51:47.094Z,100403.55
2022-08-02T01:54:18.955Z,100398.72
2022-08-02T01:56:49.672Z,100403.89
2022-08-02T01:59:22.368Z,100402.17
2022-08-02T02:01:54.020Z,100404.63
2022-08-02T02:04:25.059Z,100405.71
2022-08-02T02:06:56.104Z,100404.43
2022-08-02T02:09:28.804Z,100410.64
2022-08-02T02:12:09.554Z,100408.61
2022-08-02T02:14:49.263Z,100410.16
2022-08-02T02:17:50.660Z,100408.58
2022-08-02T02:20:14.748Z,100410.80
2022-08-02T02:22:44.455Z,100410.38
2022-08-02T02:25:15.505Z,100411.08
2022-08-02T02:27:50.039Z,100406.58
2022-08-02T02:30:20.053Z,100407.70
2022-08-02T02:32:53.610Z,100406.58
2022-08-02T02:35:23.268Z,100406.48
2022-08-02T02:37:54.890Z,100408.44
2022-08-02T02:40:27.471Z,100406.81
2022-08-02T02:42:59.236Z,100408.55
2022-08-02T02:45:30.638Z,100406.36
2022-08-02T02:48:02.333Z,100405.97
2022-08-02T02:50:32.224Z,100405.93
2022-08-02T02:53:02.379Z,100405.13
2022-08-02T02:55:32.469Z,100408.59
2022-08-02T02:58:01.967Z,100412.33
2022-08-02T03:00:49.839Z,100416.02
2022-08-02T03:03:19.693Z,100421.33
2022-08-02T03:05:50.565Z,100424.50
2022-08-02T03:08:19.493Z,100423.31
2022-08-02T03:10:48.779Z,100427.66
2022-08-02T03:13:19.002Z,100428.07
2022-08-02T03:15:48.527Z,100427.81
2022-08-02T03:18:32.083Z,100433.81
2022-08-02T03:21:03.866Z,100433.44
2022-08-02T03:23:33.143Z,100440.50
2022-08-02T03:26:02.094Z,100442.66
2022-08-02T03:28:31.605Z,100443.52
2022-08-02T03:31:01.384Z,100443.05
2022-08-02T03:33:31.640Z,100444.40
2022-08-02T03:36:08.412Z,100447.04
2022-08-02T03:38:38.063Z,100449.25
2022-08-02T03:41:08.324Z,100446.85
2022-08-02T03:43:38.649Z,100451.25
2022-08-02T03:46:09.619Z,100449.05
2022-08-02T03:48:39.721Z,100453.59
2022-08-02T03:51:08.903Z,100459.39
2022-08-02T03:53:39.015Z,100466.16
2022-08-02T03:56:09.439Z,100465.23
2022-08-02T03:58:38.292Z,100467.48
2022-08-02T04:01:07.293Z,100465.41
2022-08-02T04:03:36.368Z,100467.53
2022-08-02T04:06:05.485Z,100471.55
2022-08-02T04:08:38.128Z,100471.67
2022-08-02T04:11:24.956Z,100473.58
2022-08-02T04:13:56.866Z,100481.58
2022-08-02T04:16:34.516Z,100485.59
2022-08-02T04:19:08.257Z,100487.44
2022-08-02T04:21:41.493Z,100489.80
2022-08-02T04:24:25.207Z,100491.31
2022-08-02T04:26:57.895Z,100492.84
2022-08-02T04:29:36.753Z,100494.14
2022-08-02T04:32:07.070Z,100492.91
2022-08-02T04:34:35.879Z,100495.68
2022-08-02T04:37:05.637Z,100493.95
2022-08-02T04:39:35.401Z,100489.65
2022-08-02T04:42:04.854Z,100490.54
2022-08-02T04:44:34.363Z,100492.80
2022-08-02T04:47:06.837Z,100497.02
2022-08-02T04:49:35.986Z,100496.98
2022-08-02T04:52:05.756Z,100500.80
2022-08-02T04:54:34.810Z,100504.90
2022-08-02T04:57:24.756Z,100509.11
2022-08-02T04:59:54.727Z,100511.71
2022-08-02T05:02:23.797Z,100517.94
2022-08-02T05:04:52.589Z,100517.44
2022-08-02T05:07:21.382Z,100516.58
2022-08-02T05:09:50.163Z,100509.75
2022-08-02T05:12:21.518Z,100506.55
2022-08-02T05:14:50.425Z,100504.48
2022-08-02T05:17:19.256Z,100509.40
2022-08-02T05:19:48.435Z,100508.40
2022-08-02T05:22:17.341Z,100510.02
2022-08-02T05:24:46.123Z,100514.64
2022-08-02T05:27:17.336Z,100517.70
2022-08-02T05:29:53.557Z,100519.91
2022-08-02T05:32:25.931Z,100516.96
2022-08-02T05:34:54.827Z,100521.01
2022-08-02T05:37:23.667Z,100520.70
2022-08-02T05:39:55.827Z,100523.27
2022-08-02T05:42:25.170Z,100524.17
2022-08-02T05:44:55.202Z,100519.52
2022-08-02T05:47:23.986Z,100519.64
2022-08-02T05:49:52.774Z,100522.34
2022-08-02T05:52:24.735Z,100523.04
2022-08-02T05:55:03.684Z,100529.55
2022-08-02T05:57:43.711Z,100531.77
2022-08-02T06:00:15.285Z,100536.56
2022-08-02T06:03:16.589Z,100535.61
2022-08-02T06:05:53.563Z,100538.61
2022-08-02T06:08:30.996Z,100539.80
2022-08-02T06:11:02.528Z,100541.05
2022-08-02T06:13:32.517Z,100548.33
2022-08-02T06:16:02.426Z,100547.64
2022-08-02T06:18:33.492Z,100553.91
2022-08-02T06:22:31.597Z,100552.75
2022-08-02T06:23:58.854Z,100558.77
2022-08-02T06:26:29.038Z,100559.85
2022-08-02T06:28:59.030Z,100560.39
2022-08-02T06:31:27.914Z,100562.30
2022-08-02T06:33:57.014Z,100558.40
2022-08-02T06:36:35.618Z,100560.67
2022-08-02T06:39:08.672Z,100556.70
2022-08-02T06:41:41.711Z,100562.30
2022-08-02T06:44:45.082Z,100564.96
2022-08-02T06:47:11.256Z,100562.09
2022-08-02T06:49:52.789Z,100562.38
2022-08-02T06:52:29.723Z,100556.67
2022-08-02T06:55:00.721Z,100563.10
2022-08-02T06:57:30.808Z,100559.70
2022-08-02T07:00:01.109Z,100560.22
2022-08-02T07:02:30.811Z,100564.13
2022-08-02T07:05:00.091Z,100557.09
2022-08-02T07:07:29.103Z,100557.77
2022-08-02T07:10:01.450Z,100555.50
2022-08-02T07:12:32.956Z,100557.27
2022-08-02T07:15:04.074Z,100557.86
2022-08-02T07:17:33.539Z,100558.10
2022-08-02T07:20:03.141Z,100560.23
2022-08-02T07:22:32.270Z,100562.16
2022-08-02T07:25:01.732Z,100565.27
2022-08-02T07:27:30.851Z,100562.69
2022-08-02T07:30:00.488Z,100560.66
2022-08-02T07:32:31.736Z,100562.95
2022-08-02T07:35:06.645Z,100561.77
2022-08-02T07:37:55.660Z,100564.38
2022-08-02T07:40:27.322Z,100564.66
2022-08-02T07:43:02.741Z,100561.48
2022-08-02T07:45:36.114Z,100559.20
2022-08-02T07:48:14.524Z,100560.85
2022-08-02T07:50:43.429Z,100561.88
2022-08-02T07:53:12.216Z,100555.52
2022-08-02T07:55:41.157Z,100552.38
2022-08-02T07:58:13.084Z,100555.73
2022-08-02T08:00:44.304Z,100552.54
2022-08-02T08:03:13.859Z,100551.96
2022-08-02T08:05:42.775Z,100557.57
2022-08-02T08:08:16.884Z,100557.21
2022-08-02T08:10:46.948Z,100562.53
2022-08-02T08:13:16.130Z,100564.63
2022-08-02T08:15:52.182Z,100565.85
2022-08-02T08:18:22.653Z,100563.09
2022-08-02T08:20:51.923Z,100562.03
2022-08-02T08:23:21.037Z,100564.66
2022-08-02T08:25:50.129Z,100563.36
2022-08-02T08:28:19.021Z,100558.86
2022-08-02T08:30:47.832Z,100554.42
2022-08-02T08:33:16.646Z,100556.60
2022-08-02T08:35:45.531Z,100556.98
2022-08-02T08:38:15.098Z,100553.70
2022-08-02T08:40:44.486Z,100552.23
2022-08-02T08:43:14.223Z,100552.35
2022-08-02T08:45:44.351Z,100551.86
2022-08-02T08:48:21.815Z,100548.85
2022-08-02T08:51:08.784Z,100550.23
2022-08-02T08:53:43.273Z,100547.52
2022-08-02T08:56:16.257Z,100550.05
2022-08-02T08:58:47.279Z,100551.60
2022-08-02T09:01:17.007Z,100550.63
2022-08-02T09:03:46.393Z,100550.90
2022-08-02T09:06:15.403Z,100552.29
2022-08-02T09:08:44.267Z,100552.50
2022-08-02T09:11:18.695Z,100553.88
2022-08-02T09:13:52.211Z,100554.33
2022-08-02T09:16:32.475Z,100550.91
2022-08-02T09:19:02.382Z,100548.38
2022-08-02T09:21:39.701Z,100546.84
2022-08-02T09:24:17.844Z,100542.20
2022-08-02T09:26:47.784Z,100540.79
2022-08-02T09:29:18.009Z,100534.28
2022-08-02T09:31:50.946Z,100531.48
2022-08-02T09:34:21.820Z,100528.52
2022-08-02T09:36:54.673Z,100524.25
2022-08-02T09:39:25.832Z,100526.88
2022-08-02T09:42:10.035Z,100528.87
2022-08-02T09:44:39.328Z,100524.98
2022-08-02T09:47:16.531Z,100529.20
2022-08-02T09:49:52.652Z,100526.54
2022-08-02T09:52:43.322Z,100520.29
2022-08-02T09:55:13.759Z,100517.42
2022-08-02T09:57:42.749Z,100516.70
2022-08-02T10:00:16.165Z,100514.27
2022-08-02T10:03:09.164Z,100515.98
2022-08-02T10:05:56.242Z,100520.31
2022-08-02T10:08:33.649Z,100513.79
2022-08-02T10:11:03.165Z,100519.04
2022-08-02T10:13:33.827Z,100517.42
2022-08-02T10:16:05.611Z,100513.81
2022-08-02T10:18:39.889Z,100508.49
2022-08-02T10:21:15.133Z,100506.48
2022-08-02T10:23:46.324Z,100505.23
2022-08-02T10:26:17.977Z,100505.83
2022-08-02T10:28:49.404Z,100507.42
2022-08-02T10:31:25.363Z,100506.61
2022-08-02T10:33:57.019Z,100506.50
2022-08-02T10:36:27.174Z,100503.91
2022-08-02T10:38:58.446Z,100499.96
2022-08-02T10:41:44.720Z,100500.76
2022-08-02T10:44:29.273Z,100500.42
2022-08-02T10:47:26.195Z,100496.64
2022-08-02T10:49:56.703Z,100497.05
2022-08-02T10:52:26.201Z,100494.66
2022-08-02T10:55:00.020Z,100491.31
2022-08-02T10:57:30.783Z,100488.48
2022-08-02T11:00:03.140Z,100486.30
2022-08-02T11:02:41.201Z,100481.58
2022-08-02T11:05:13.203Z,100481.27
2022-08-02T11:07:47.630Z,100482.85
2022-08-02T11:10:40.047Z,100483.44
2022-08-02T11:13:11.794Z,100483.34
2022-08-02T11:16:02.040Z,100476.38
2022-08-02T11:19:03.646Z,100475.22
2022-08-02T11:21:36.268Z,100473.80
2022-08-02T11:24:28.175Z,100475.16
2022-08-02T11:26:58.932Z,100475.29
2022-08-02T11:29:38.107Z,100471.67
2022-08-02T11:32:15.273Z,100466.66
2022-08-02T11:34:46.281Z,100468.13
2022-08-02T11:37:28.778Z,100465.35
2022-08-02T11:39:57.654Z,100463.98
2022-08-02T11:42:33.543Z,100466.75
2022-08-02T11:45:02.670Z,100468.02
2022-08-02T11:47:31.650Z,100468.23
2022-08-02T11:50:08.170Z,100459.30
2022-08-02T11:52:38.007Z,100464.64
2022-08-02T11:55:09.507Z,100460.17
2022-08-02T11:58:04.091Z,100456.34
2022-08-02T12:00:30.792Z,100451.03
2022-08-02T12:03:00.396Z,100450.05
2022-08-02T12:06:02.894Z,100450.43
2022-08-02T12:08:25.148Z,100447.90
2022-08-02T12:10:54.294Z,100447.40
2022-08-02T12:13:23.153Z,100450.48
2022-08-02T12:15:52.108Z,100450.95
2022-08-02T12:18:40.695Z,100452.60
2022-08-02T12:21:24.292Z,100453.31
2022-08-02T12:24:00.094Z,100454.25
2022-08-02T12:26:30.252Z,100452.06
2022-08-02T12:29:00.870Z,100450.65
2022-08-02T12:31:56.008Z,100448.45
2022-08-02T12:34:31.745Z,100444.45
2022-08-02T12:37:04.479Z,100438.44
2022-08-02T12:39:39.567Z,100442.65
2022-08-02T12:42:08.569Z,100440.69
2022-08-02T12:44:39.097Z,100435.31
2022-08-02T12:47:09.527Z,100431.98
2022-08-02T12:49:38.403Z,100435.85
2022-08-02T12:52:20.908Z,100436.14
2022-08-02T12:54:50.323Z,100436.42
2022-08-02T12:57:20.136Z,100437.45
2022-08-02T12:59:53.399Z,100436.46
2022-08-02T13:02:22.330Z,100433.11
2022-08-02T13:04:51.265Z,100430.11
2022-08-02T13:07:20.632Z,100432.09
2022-08-02T13:09:49.611Z,100429.58
2022-08-02T13:12:18.553Z,100424.30
2022-08-02T13:14:47.600Z,100424.80
2022-08-02T13:17:16.395Z,100423.86
2022-08-02T13:19:45.215Z,100424.64
2022-08-02T13:22:20.439Z,100427.16
2022-08-02T13:24:55.550Z,100424.64
2022-08-02T13:27:26.402Z,100424.48
2022-08-02T13:29:57.095Z,100422.55
2022-08-02T13:32:28.383Z,100421.55
2022-08-02T13:34:58.051Z,100422.91
2022-08-02T13:37:26.844Z,100422.05
2022-08-02T13:40:19.123Z,100420.73
2022-08-02T13:42:44.673Z,100426.49
2022-08-02T13:45:14.291Z,100425.23
2022-08-02T13:48:04.481Z,100427.92
2022-08-02T13:50:33.507Z,100425.69
2022-08-02T13:53:02.345Z,100426.56
2022-08-02T13:55:31.256Z,100427.05
2022-08-02T13:58:00.181Z,100423.92
2022-08-02T14:00:34.357Z,100424.42
2022-08-02T14:03:06.889Z,100422.90
2022-08-02T14:05:48.451Z,100421.36
2022-08-02T14:08:18.999Z,100419.17
2022-08-02T14:10:49.295Z,100419.11
2022-08-02T14:13:19.051Z,100419.55
2022-08-02T14:15:49.770Z,100413.36
2022-08-02T14:18:18.738Z,100419.70
2022-08-02T14:20:47.754Z,100421.14
2022-08-02T14:23:16.638Z,100423.15
2022-08-02T14:25:45.452Z,100424.80
2022-08-02T14:28:14.272Z,100420.52
2022-08-02T14:30:43.185Z,100423.75
2022-08-02T14:33:12.001Z,100423.98
2022-08-02T14:35:40.836Z,100417.89
2022-08-02T14:38:09.676Z,100414.42
2022-08-02T14:40:38.596Z,100415.30
2022-08-02T14:43:08.278Z,100414.41
2022-08-02T14:45:40.844Z,100412.95
2022-08-02T14:48:12.124Z,100410.98
2022-08-02T14:50:41.247Z,100414.08
2022-08-02T14:53:12.652Z,100412.61
2022-08-02T14:55:42.832Z,100414.36
2022-08-02T14:58:12.180Z,100419.84
2022-08-02T15:00:42.120Z,100421.61
2022-08-02T15:03:14.330Z,100415.97
2022-08-02T15:05:43.250Z,100418.61
2022-08-02T15:08:12.108Z,100417.79
2022-08-02T15:10:46.101Z,100413.14
2022-08-02T15:13:15.338Z,100410.18
2022-08-02T15:15:44.238Z,100408.86
2022-08-02T15:18:14.144Z,100409.08
2022-08-02T15:20:46.257Z,100408.19
2022-08-02T15:23:24.725Z,100408.64
2022-08-02T15:26:03.760Z,100406.27
2022-08-02T15:28:32.588Z,100403.16
2022-08-02T15:31:01.569Z,100410.22
2022-08-02T15:33:30.431Z,100408.26
2022-08-02T15:35:59.499Z,100412.90
2022-08-02T15:38:28.335Z,100410.88
2022-08-02T15:40:57.170Z,100415.98
2022-08-02T15:43:26.079Z,100417.52
2022-08-02T15:45:54.923Z,100416.92
2022-08-02T15:48:24.091Z,100421.02
2022-08-02T15:50:52.907Z,100416.38
2022-08-02T15:53:21.864Z,100423.44
2022-08-02T15:56:04.343Z,100425.14
2022-08-02T15:58:44.239Z,100424.21
2022-08-02T16:01:13.653Z,100421.48
2022-08-02T16:03:42.604Z,100422.19
2022-08-02T16:06:12.197Z,100426.20
2022-08-02T16:08:53.815Z,100426.27
2022-08-02T16:11:23.919Z,100435.40
2022-08-02T16:13:56.177Z,100435.45
2022-08-02T16:16:27.332Z,100439.39
2022-08-02T16:18:56.847Z,100439.06
2022-08-02T16:21:25.800Z,100440.54
2022-08-02T16:23:58.977Z,100441.41
2022-08-02T16:26:33.659Z,100442.95
2022-08-02T16:29:04.510Z,100442.61
2022-08-02T16:31:33.442Z,100446.98
2022-08-02T16:34:02.265Z,100451.05
2022-08-02T16:36:31.076Z,100449.45
2022-08-02T16:38:59.950Z,100448.45
2022-08-02T16:41:50.888Z,100452.94
2022-08-02T16:44:17.597Z,100454.53
2022-08-02T16:46:46.434Z,100456.81
2022-08-02T16:50:05.902Z,100462.68
2022-08-02T16:52:09.439Z,100461.20
2022-08-02T16:54:38.610Z,100459.60
2022-08-02T16:57:07.421Z,100462.34
2022-08-02T16:59:42.624Z,100466.27
2022-08-02T17:02:18.175Z,100467.15
2022-08-02T17:05:01.418Z,100469.60
2022-08-02T17:08:15.140Z,100473.31
2022-08-02T17:10:19.331Z,100477.90
2022-08-02T17:12:51.186Z,100479.25
2022-08-02T17:15:53.467Z,100480.50
2022-08-02T17:18:09.739Z,100481.80
2022-08-02T17:20:38.645Z,100480.48
2022-08-02T17:23:09.032Z,100481.00
2022-08-02T17:25:45.287Z,100484.48
2022-08-02T17:28:21.793Z,100488.09
2022-08-02T17:31:00.937Z,100488.72
2022-08-02T17:33:29.775Z,100493.53
2022-08-02T17:36:00.935Z,100495.32
2022-08-02T17:38:31.668Z,100499.95
2022-08-02T17:41:00.574Z,100502.17
2022-08-02T17:43:33.036Z,100503.63
2022-08-02T17:46:05.231Z,100505.50
2022-08-02T17:48:54.995Z,100508.88
2022-08-02T17:52:15.418Z,100508.32
2022-08-02T17:54:13.980Z,100512.39
2022-08-02T17:56:42.994Z,100518.59
2022-08-02T17:59:20.176Z,100523.77
2022-08-02T18:01:52.862Z,100527.25
2022-08-02T18:04:26.876Z,100531.35
2022-08-02T18:06:58.486Z,100534.85
2022-08-02T18:09:28.283Z,100537.70
2022-08-02T18:11:57.917Z,100539.71
2022-08-02T18:14:26.810Z,100542.23
2022-08-02T18:16:55.786Z,100543.85
2022-08-02T18:19:42.204Z,100547.92
2022-08-02T18:22:12.656Z,100554.72
2022-08-02T18:24:44.193Z,100561.63
2022-08-02T18:27:13.828Z,100565.32
2022-08-02T18:29:42.595Z,100570.38
2022-08-02T18:32:12.198Z,100569.46
2022-08-02T18:34:47.691Z,100570.73
2022-08-02T18:37:17.748Z,100577.45
2022-08-02T18:39:51.778Z,100580.10
2022-08-02T18:42:20.911Z,100581.55
2022-08-02T18:44:50.164Z,100582.11
2022-08-02T18:47:19.012Z,100583.01
2022-08-02T18:49:51.517Z,100585.14
2022-08-02T18:52:31.419Z,100585.36
2022-08-02T18:55:00.621Z,100594.50
2022-08-02T18:58:18.223Z,100601.07
2022-08-02T19:00:20.517Z,100600.77
2022-08-02T19:02:54.723Z,100603.39
2022-08-02T19:05:53.331Z,100606.55
2022-08-02T19:08:13.971Z,100607.12
2022-08-02T19:10:49.192Z,100611.40
2022-08-02T19:13:18.984Z,100608.27
2022-08-02T19:15:47.936Z,100607.27
2022-08-02T19:18:16.795Z,100608.21
2022-08-02T19:20:48.234Z,100614.28
2022-08-02T19:23:17.412Z,100622.19
2022-08-02T19:25:54.624Z,100621.95
2022-08-02T19:28:26.414Z,100626.23
2022-08-02T19:30:56.218Z,100632.29
2022-08-02T19:34:06.074Z,100636.45
2022-08-02T19:36:17.147Z,100635.19
2022-08-02T19:38:46.152Z,100637.46
2022-08-02T19:41:18.354Z,100637.70
2022-08-02T19:44:22.840Z,100637.21
2022-08-02T19:49:39.606Z,100641.65
2022-08-02T19:52:22.262Z,100646.13
2022-08-02T19:54:54.639Z,100645.00
2022-08-02T19:57:26.090Z,100645.86
2022-08-02T19:59:57.435Z,100645.38
2022-08-02T20:02:27.168Z,100646.01
2022-08-02T20:04:58.268Z,100642.02
2022-08-02T20:07:55.274Z,100645.93
2022-08-02T20:10:24.596Z,100640.91
2022-08-02T20:12:53.904Z,100641.55
2022-08-02T20:15:23.452Z,100636.54
2022-08-02T20:18:12.260Z,100639.35
2022-08-02T20:20:43.578Z,100637.58
2022-08-02T20:23:32.424Z,100638.09
2022-08-02T20:26:02.528Z,100640.04
2022-08-02T20:28:31.962Z,100640.80
2022-08-02T20:31:07.177Z,100638.99
2022-08-02T20:33:56.248Z,100645.66
2022-08-02T20:36:25.881Z,100648.21
2022-08-02T20:38:55.139Z,100645.65
2022-08-02T20:41:36.728Z,100649.44
2022-08-02T20:44:15.831Z,100649.85
2022-08-02T20:46:59.420Z,100651.02
2022-08-02T20:49:41.149Z,100653.83
2022-08-02T20:55:01.084Z,100656.98
2022-08-02T20:57:36.194Z,100656.80
2022-08-02T21:00:19.013Z,100659.69
2022-08-02T21:02:49.935Z,100661.59
2022-08-02T21:05:18.771Z,100662.81
2022-08-02T21:07:53.442Z,100664.38
2022-08-02T21:10:24.023Z,100670.82
2022-08-02T21:12:53.463Z,100669.77
2022-08-02T21:15:25.384Z,100673.23
2022-08-02T21:17:58.138Z,100671.31
2022-08-02T21:20:35.028Z,100671.56
2022-08-02T21:23:04.090Z,100669.45
2022-08-02T21:25:42.448Z,100673.70
2022-08-02T21:28:20.113Z,100674.70
2022-08-02T21:30:52.314Z,100676.14
2022-08-02T21:33:23.604Z,100674.15
2022-08-02T21:35:53.487Z,100671.81
2022-08-02T21:38:35.434Z,100668.23
2022-08-02T21:41:05.696Z,100671.67
2022-08-02T21:43:40.194Z,100678.62
2022-08-02T21:46:09.286Z,100678.73
2022-08-02T21:48:43.438Z,100684.89
2022-08-02T21:51:15.839Z,100681.48
2022-08-02T21:54:17.696Z,100683.89
2022-08-02T21:56:34.131Z,100682.38
2022-08-02T21:59:14.838Z,100683.34
2022-08-02T22:01:53.067Z,100686.11
2022-08-02T22:04:22.750Z,100688.95
2022-08-02T22:06:51.671Z,100690.63
2022-08-02T22:09:42.243Z,100681.64
2022-08-02T22:12:16.493Z,100691.77
2022-08-02T22:14:49.616Z,100684.76
2022-08-02T22:17:51.160Z,100684.42
2022-08-02T22:20:22.911Z,100684.38
2022-08-02T22:22:52.598Z,100686.10
2022-08-02T22:25:36.173Z,100686.83
2022-08-02T22:28:36.769Z,100685.90
2022-08-02T22:31:03.763Z,100685.56
2022-08-02T22:34:00.233Z,100688.85
2022-08-02T22:36:31.700Z,100693.95
2022-08-02T22:39:01.856Z,100693.42
2022-08-02T22:42:00.121Z,100691.20
2022-08-02T22:44:20.117Z,100687.97
2022-08-02T22:49:44.608Z,100683.41
2022-08-02T22:52:22.086Z,100689.51
2022-08-02T22:54:51.770Z,100689.73
2022-08-02T22:57:30.471Z,100690.95
2022-08-02T22:59:05.292Z,100657.63
2022-08-02T22:59:06.305Z,100640.75
2022-08-02T23:00:00.647Z,100685.61
2022-08-02T23:02:30.158Z,100684.17
2022-08-02T23:04:59.189Z,100681.36
2022-08-02T23:07:28.223Z,100681.59
2022-08-02T23:10:07.352Z,100682.05
2022-08-02T23:12:36.208Z,100681.30
2022-08-02T23:15:06.451Z,100679.11
2022-08-02T23:18:07.820Z,100678.85
2022-08-02T23:20:36.778Z,100675.05
2022-08-02T23:23:11.564Z,100675.44
2022-08-02T23:25:40.843Z,100674.41
2022-08-02T23:28:09.662Z,100674.86
2022-08-02T23:30:38.460Z,100676.98
2022-08-02T23:33:07.282Z,100675.14
2022-08-02T23:35:36.111Z,100676.98
2022-08-02T23:38:04.940Z,100674.02
2022-08-02T23:40:40.069Z,100673.44
2022-08-02T23:43:14.271Z,100678.32
2022-08-02T23:45:45.170Z,100683.59
2022-08-02T23:48:14.063Z,100685.23
2022-08-02T23:50:42.862Z,100689.41
2022-08-02T23:53:11.645Z,100690.36
2022-08-02T23:55:40.556Z,100686.60
2022-08-02T23:58:09.365Z,100684.31
